KEWN/EWN METAR and TAF weather

Enter ICAO airport designator
Station Type Date Time Source
KEWN METAR 2022/09/30 20:02 UTC NOAA

KEWN 302002Z 12009G15KT 8SM -RA SCT014 BKN021 OVC028 24/23 A2960 RMK AO2 LTG DSNT N P0000 T02440233


Station Type Date Time Source
KEWN Decoded METAR 2022/09/30 20:02 UTC NOAA

New Bern, Craven County Regional Airport, NC, United States (KEWN) 35-04-03N 077-02-50W 3M
Sep 30, 2022 - 04:02 PM EDT / 2022.09.30 2002 UTC
Wind: from the ESE (120 degrees) at 10 MPH (9 KT) gusting to 17 MPH (15 KT):0
Visibility: 8 mile(s):0
Sky conditions: overcast
Weather: light rain; Lightning observed
Precipitation last hour: A trace
Temperature: 75.9 F (24.4 C)
Dew Point: 73.9 F (23.3 C)
Relative Humidity: 93%
Pressure (altimeter): 29.6 in. Hg (1002 hPa)
ob: KEWN 302002Z 12009G15KT 8SM -RA SCT014 BKN021 OVC028 24/23 A2960 RMK AO2 LTG DSNT N P0000 T02440233
cycle: 20

Station Type Date Time Source
KEWN TAF 2022/10/01 06:48 UTC NOAA

TAF KEWN 010545Z 0106/0206 18010G17KT P6SM BKN025 OVC040
FM011500 21008G15KT P6SM SCT025
FM020100 00000KT P6SM FEW250

Example: see airport list